Main page
METAR-TAF:

METAR-TAF

Airports :

Kithira Island National Airport

Kythira, Greece

latitude: 36-17-21N, longitude: 023-01-24E, elevation: 321 m

Current weather observation

The report was made 16 hours and 5 minutes ago, at 11:50 UTC
Wind 8 kt from the South/Southeast
Temperature 19°C
Humidity 83%
Pressure 1012 hPa
Visibility 10 km or more
Scattered clouds at a height of 2000 ft

METAR: LGKC 021150Z 15008KT 9999 SCT020 19/16 Q1012

Time: 06:55 (03:55 UTC)

Forecast

The report was made 1 hour and 55 minutes ago, at 02:00 UTC
Forecast valid from 03 at 03 UTC to 03 at 12 UTC
Wind 14 kt from the West/Northwest
Visibility 10 km or more
Scattered clouds at a height of 1400 ft

TAF: LGKC 030200Z 0303/0312 29014KT 9999 SCT014

Weather observations and forecasts of more than 4000 airports (METAR and TAF reports).

The available stations are represented by yellow and red dots on the map.

Hover mouse over dot to see the name of the station.

Then click to see weather observations and forecasts.

To change the map : click on the green buttons with a black cross to zoom in, on the green button with a dash to zoom out, or on the green arrows for adjacent maps.


METAR-TAF: